sensor_id;sensor_type;location;lat;lon;timestamp;pressure;altitude;pressure_sealevel;temperature;humidity
62402;BME280;48440;51.224;22.506;2023-12-20T00:02:24;98526.84;;;5.68;68.95
62402;BME280;48440;51.224;22.506;2023-12-20T00:04:50;98526.84;;;5.68;69.50
62402;BME280;48440;51.224;22.506;2023-12-20T00:07:15;98526.34;;;5.71;69.29
62402;BME280;48440;51.224;22.506;2023-12-20T00:09:41;98523.66;;;5.71;69.50
62402;BME280;48440;51.224;22.506;2023-12-20T00:12:06;98529.53;;;5.68;69.63
62402;BME280;48440;51.224;22.506;2023-12-20T00:14:32;98520.63;;;5.67;69.59
62402;BME280;48440;51.224;22.506;2023-12-20T00:16:57;98528.03;;;5.60;69.99
62402;BME280;48440;51.224;22.506;2023-12-20T00:19:23;98530.97;;;5.59;70.29
62402;BME280;48440;51.224;22.506;2023-12-20T00:21:49;98523.94;;;5.58;70.56
62402;BME280;48440;51.224;22.506;2023-12-20T00:24:14;98527.94;;;5.55;70.68
62402;BME280;48440;51.224;22.506;2023-12-20T00:26:40;98525.47;;;5.54;71.21
62402;BME280;48440;51.224;22.506;2023-12-20T00:29:05;98521.16;;;5.53;71.19
62402;BME280;48440;51.224;22.506;2023-12-20T00:31:31;98522.19;;;5.52;71.28
62402;BME280;48440;51.224;22.506;2023-12-20T00:33:56;98522.44;;;5.50;70.75
62402;BME280;48440;51.224;22.506;2023-12-20T00:36:22;98525.63;;;5.47;71.89
62402;BME280;48440;51.224;22.506;2023-12-20T00:38:48;98526.44;;;5.47;71.71
62402;BME280;48440;51.224;22.506;2023-12-20T00:41:13;98519.16;;;5.48;72.03
62402;BME280;48440;51.224;22.506;2023-12-20T00:43:39;98526.78;;;5.51;72.43
62402;BME280;48440;51.224;22.506;2023-12-20T00:46:04;98526.78;;;5.51;73.04
62402;BME280;48440;51.224;22.506;2023-12-20T00:48:30;98512.16;;;5.47;73.22
62402;BME280;48440;51.224;22.506;2023-12-20T00:50:57;98510.78;;;5.44;73.88
62402;BME280;48440;51.224;22.506;2023-12-20T00:53:22;98509.63;;;5.40;74.18
62402;BME280;48440;51.224;22.506;2023-12-20T00:55:48;98505.78;;;5.36;74.58
62402;BME280;48440;51.224;22.506;2023-12-20T00:58:14;98500.66;;;5.35;74.85
62402;BME280;48440;51.224;22.506;2023-12-20T01:00:40;98493.63;;;5.34;74.61
62402;BME280;48440;51.224;22.506;2023-12-20T01:03:07;98491.75;;;5.34;75.33
62402;BME280;48440;51.224;22.506;2023-12-20T01:05:32;98489.06;;;5.34;75.61
62402;BME280;48440;51.224;22.506;2023-12-20T01:07:58;98480.41;;;5.32;75.81
62402;BME280;48440;51.224;22.506;2023-12-20T01:10:23;98479.34;;;5.33;76.41
62402;BME280;48440;51.224;22.506;2023-12-20T01:12:49;98471.53;;;5.32;76.23
62402;BME280;48440;51.224;22.506;2023-12-20T01:15:14;98469.41;;;5.34;76.67
62402;BME280;48440;51.224;22.506;2023-12-20T01:17:40;98462.88;;;5.30;76.79
62402;BME280;48440;51.224;22.506;2023-12-20T01:20:06;98463.69;;;5.30;77.37
62402;BME280;48440;51.224;22.506;2023-12-20T01:22:31;98457.97;;;5.27;77.58
62402;BME280;48440;51.224;22.506;2023-12-20T01:24:57;98458.22;;;5.25;77.63
62402;BME280;48440;51.224;22.506;2023-12-20T01:27:22;98451.44;;;5.23;77.81
62402;BME280;48440;51.224;22.506;2023-12-20T01:29:48;98448.97;;;5.21;77.37
62402;BME280;48440;51.224;22.506;2023-12-20T01:32:13;98456.00;;;5.22;77.61
62402;BME280;48440;51.224;22.506;2023-12-20T01:34:38;98440.91;;;5.21;77.33
62402;BME280;48440;51.224;22.506;2023-12-20T01:37:04;98442.78;;;5.21;76.80
62402;BME280;48440;51.224;22.506;2023-12-20T01:39:30;98448.56;;;5.13;77.16
62402;BME280;48440;51.224;22.506;2023-12-20T01:41:55;98438.06;;;5.11;77.81
62402;BME280;48440;51.224;22.506;2023-12-20T01:44:20;98437.00;;;5.12;78.13
62402;BME280;48440;51.224;22.506;2023-12-20T01:46:46;98440.84;;;5.16;77.84
62402;BME280;48440;51.224;22.506;2023-12-20T01:49:12;98433.59;;;5.17;77.88
62402;BME280;48440;51.224;22.506;2023-12-20T01:51:38;98433.00;;;5.15;77.97
62402;BME280;48440;51.224;22.506;2023-12-20T01:54:04;98424.94;;;5.15;78.60
62402;BME280;48440;51.224;22.506;2023-12-20T01:56:30;98424.03;;;5.09;78.44
62402;BME280;48440;51.224;22.506;2023-12-20T01:58:57;98414.56;;;5.06;79.24
62402;BME280;48440;51.224;22.506;2023-12-20T02:01:23;98424.25;;;5.07;79.30
62402;BME280;48440;51.224;22.506;2023-12-20T02:03:48;98416.44;;;5.06;78.41
62402;BME280;48440;51.224;22.506;2023-12-20T02:06:14;98406.97;;;5.03;79.16
62402;BME280;48440;51.224;22.506;2023-12-20T02:08:41;98402.06;;;5.00;79.08
62402;BME280;48440;51.224;22.506;2023-12-20T02:11:07;98402.66;;;5.02;79.49
62402;BME280;48440;51.224;22.506;2023-12-20T02:13:33;98404.88;;;5.05;79.18
62402;BME280;48440;51.224;22.506;2023-12-20T02:15:59;98391.31;;;5.00;79.57
62402;BME280;48440;51.224;22.506;2023-12-20T02:18:24;98395.53;;;4.96;79.88
62402;BME280;48440;51.224;22.506;2023-12-20T02:20:50;98380.81;;;4.99;79.50
62402;BME280;48440;51.224;22.506;2023-12-20T02:23:15;98387.22;;;4.98;79.41
62402;BME280;48440;51.224;22.506;2023-12-20T02:25:40;98384.31;;;4.99;79.75
62402;BME280;48440;51.224;22.506;2023-12-20T02:28:06;98375.09;;;4.95;80.07
62402;BME280;48440;51.224;22.506;2023-12-20T02:30:32;98387.41;;;4.91;80.04
62402;BME280;48440;51.224;22.506;2023-12-20T02:32:59;98369.47;;;4.97;79.92
62402;BME280;48440;51.224;22.506;2023-12-20T02:35:25;98362.38;;;4.91;80.15
62402;BME280;48440;51.224;22.506;2023-12-20T02:37:51;98361.81;;;4.89;80.18
62402;BME280;48440;51.224;22.506;2023-12-20T02:40:16;98364.97;;;4.86;80.66
62402;BME280;48440;51.224;22.506;2023-12-20T02:42:42;98362.06;;;4.87;80.81
62402;BME280;48440;51.224;22.506;2023-12-20T02:45:07;98353.75;;;4.89;80.97
62402;BME280;48440;51.224;22.506;2023-12-20T02:47:33;98348.59;;;4.87;81.22
62402;BME280;48440;51.224;22.506;2023-12-20T02:49:58;98345.91;;;4.87;81.72
62402;BME280;48440;51.224;22.506;2023-12-20T02:52:24;98344.63;;;4.90;81.82
62402;BME280;48440;51.224;22.506;2023-12-20T02:54:50;98340.63;;;4.92;81.30
62402;BME280;48440;51.224;22.506;2023-12-20T02:57:15;98348.13;;;4.90;81.06
62402;BME280;48440;51.224;22.506;2023-12-20T02:59:40;98338.75;;;4.93;80.87
62402;BME280;48440;51.224;22.506;2023-12-20T03:02:06;98337.13;;;4.92;81.52
62402;BME280;48440;51.224;22.506;2023-12-20T03:04:31;98330.44;;;4.94;81.20
62402;BME280;48440;51.224;22.506;2023-12-20T03:06:57;98324.16;;;4.89;81.11
62402;BME280;48440;51.224;22.506;2023-12-20T03:09:22;98329.53;;;4.89;81.16
62402;BME280;48440;51.224;22.506;2023-12-20T03:11:47;98330.38;;;4.89;80.57
62402;BME280;48440;51.224;22.506;2023-12-20T03:14:13;98329.78;;;4.87;80.85
62402;BME280;48440;51.224;22.506;2023-12-20T03:16:39;98333.78;;;4.85;81.01
62402;BME280;48440;51.224;22.506;2023-12-20T03:19:04;98338.56;;;4.83;81.91
62402;BME280;48440;51.224;22.506;2023-12-20T03:21:30;98324.78;;;4.79;81.22
62402;BME280;48440;51.224;22.506;2023-12-20T03:23:55;98330.75;;;4.81;81.96
62402;BME280;48440;51.224;22.506;2023-12-20T03:26:21;98323.50;;;4.82;81.83
62402;BME280;48440;51.224;22.506;2023-12-20T03:28:47;98328.63;;;4.83;81.82
62402;BME280;48440;51.224;22.506;2023-12-20T03:31:13;98329.94;;;4.81;81.95
62402;BME280;48440;51.224;22.506;2023-12-20T03:33:39;98333.66;;;4.80;82.42
62402;BME280;48440;51.224;22.506;2023-12-20T03:36:05;98327.81;;;4.83;82.69
62402;BME280;48440;51.224;22.506;2023-12-20T03:38:30;98323.84;;;4.85;82.37
62402;BME280;48440;51.224;22.506;2023-12-20T03:40:56;98317.63;;;4.85;82.44
62402;BME280;48440;51.224;22.506;2023-12-20T03:43:21;98298.00;;;4.84;82.58
62402;BME280;48440;51.224;22.506;2023-12-20T03:45:47;98307.69;;;4.85;83.04
62402;BME280;48440;51.224;22.506;2023-12-20T03:48:12;98307.13;;;4.83;83.29
62402;BME280;48440;51.224;22.506;2023-12-20T03:50:38;98311.94;;;4.81;83.44
62402;BME280;48440;51.224;22.506;2023-12-20T03:53:03;98313.91;;;4.86;83.43
62402;BME280;48440;51.224;22.506;2023-12-20T03:55:29;98313.91;;;4.86;83.20
62402;BME280;48440;51.224;22.506;2023-12-20T03:57:54;98327.56;;;4.84;83.61
62402;BME280;48440;51.224;22.506;2023-12-20T04:00:20;98326.28;;;4.87;83.93
62402;BME280;48440;51.224;22.506;2023-12-20T04:02:45;98328.97;;;4.87;83.90
62402;BME280;48440;51.224;22.506;2023-12-20T04:05:11;98333.53;;;4.86;84.06
62402;BME280;48440;51.224;22.506;2023-12-20T04:07:39;98340.06;;;4.90;83.61
62402;BME280;48440;51.224;22.506;2023-12-20T04:10:05;98348.13;;;4.90;83.31
62402;BME280;48440;51.224;22.506;2023-12-20T04:12:31;98351.88;;;4.89;83.85
62402;BME280;48440;51.224;22.506;2023-12-20T04:14:57;98353.41;;;4.85;84.01
62402;BME280;48440;51.224;22.506;2023-12-20T04:17:22;98355.84;;;4.87;84.65
62402;BME280;48440;51.224;22.506;2023-12-20T04:19:51;98351.53;;;4.86;83.90
62402;BME280;48440;51.224;22.506;2023-12-20T04:22:18;98358.19;;;4.83;83.98
62402;BME280;48440;51.224;22.506;2023-12-20T04:24:44;98352.25;;;4.81;84.31
62402;BME280;48440;51.224;22.506;2023-12-20T04:27:09;98348.97;;;4.79;83.93
62402;BME280;48440;51.224;22.506;2023-12-20T04:29:38;98353.31;;;4.80;84.00
62402;BME280;48440;51.224;22.506;2023-12-20T04:32:04;98340.00;;;4.73;83.31
62402;BME280;48440;51.224;22.506;2023-12-20T04:34:32;98350.66;;;4.68;82.87
62402;BME280;48440;51.224;22.506;2023-12-20T04:36:58;98349.53;;;4.64;82.58
62402;BME280;48440;51.224;22.506;2023-12-20T04:39:23;98346.25;;;4.62;82.98
62402;BME280;48440;51.224;22.506;2023-12-20T04:41:52;98340.16;;;4.67;82.67
62402;BME280;48440;51.224;22.506;2023-12-20T04:44:17;98337.13;;;4.63;82.52
62402;BME280;48440;51.224;22.506;2023-12-20T04:46:43;98336.91;;;4.65;81.92
62402;BME280;48440;51.224;22.506;2023-12-20T04:49:08;98341.94;;;4.61;82.74
62402;BME280;48440;51.224;22.506;2023-12-20T04:51:37;98321.84;;;4.64;82.57
62402;BME280;48440;51.224;22.506;2023-12-20T04:54:03;98320.09;;;4.58;82.14
62402;BME280;48440;51.224;22.506;2023-12-20T04:56:28;98333.28;;;4.59;82.15
62402;BME280;48440;51.224;22.506;2023-12-20T04:58:57;98332.47;;;4.59;82.00
62402;BME280;48440;51.224;22.506;2023-12-20T05:01:22;98348.13;;;4.62;82.43
62402;BME280;48440;51.224;22.506;2023-12-20T05:03:50;98346.03;;;4.64;82.66
62402;BME280;48440;51.224;22.506;2023-12-20T05:06:15;98359.22;;;4.65;82.49
62402;BME280;48440;51.224;22.506;2023-12-20T05:08:40;98347.41;;;4.66;82.94
62402;BME280;48440;51.224;22.506;2023-12-20T05:11:06;98346.34;;;4.67;82.81
62402;BME280;48440;51.224;22.506;2023-12-20T05:13:31;98339.59;;;4.65;83.32
62402;BME280;48440;51.224;22.506;2023-12-20T05:15:57;98337.72;;;4.65;83.08
62402;BME280;48440;51.224;22.506;2023-12-20T05:18:22;98329.16;;;4.68;83.02
62402;BME280;48440;51.224;22.506;2023-12-20T05:20:49;98328.09;;;4.69;83.43
62402;BME280;48440;51.224;22.506;2023-12-20T05:23:15;98316.88;;;4.72;83.03
62402;BME280;48440;51.224;22.506;2023-12-20T05:25:41;98321.66;;;4.70;82.53
62402;BME280;48440;51.224;22.506;2023-12-20T05:28:06;98315.97;;;4.67;83.15
62402;BME280;48440;51.224;22.506;2023-12-20T05:30:32;98320.59;;;4.71;83.13
62402;BME280;48440;51.224;22.506;2023-12-20T05:32:57;98314.34;;;4.66;84.17
62402;BME280;48440;51.224;22.506;2023-12-20T05:35:23;98315.72;;;4.68;83.81
62402;BME280;48440;51.224;22.506;2023-12-20T05:37:49;98315.97;;;4.67;83.79
62402;BME280;48440;51.224;22.506;2023-12-20T05:40:15;98321.34;;;4.67;84.27
62402;BME280;48440;51.224;22.506;2023-12-20T05:42:40;98304.88;;;4.63;83.93
62402;BME280;48440;51.224;22.506;2023-12-20T05:45:06;98306.41;;;4.59;84.95
62402;BME280;48440;51.224;22.506;2023-12-20T05:47:32;98312.94;;;4.63;84.74
62402;BME280;48440;51.224;22.506;2023-12-20T05:49:57;98307.47;;;4.58;85.09
62402;BME280;48440;51.224;22.506;2023-12-20T05:52:23;98308.63;;;4.62;85.13
62402;BME280;48440;51.224;22.506;2023-12-20T05:54:48;98312.72;;;4.65;84.56
62402;BME280;48440;51.224;22.506;2023-12-20T05:57:14;98306.03;;;4.67;85.02
62402;BME280;48440;51.224;22.506;2023-12-20T05:59:39;98312.47;;;4.66;85.54
62402;BME280;48440;51.224;22.506;2023-12-20T06:02:05;98314.81;;;4.63;85.55
62402;BME280;48440;51.224;22.506;2023-12-20T06:04:31;98314.34;;;4.66;85.61
62402;BME280;48440;51.224;22.506;2023-12-20T06:06:57;98319.47;;;4.67;85.98
62402;BME280;48440;51.224;22.506;2023-12-20T06:09:22;98316.53;;;4.69;84.89
62402;BME280;48440;51.224;22.506;2023-12-20T06:11:48;98307.91;;;4.67;85.63
62402;BME280;48440;51.224;22.506;2023-12-20T06:14:13;98310.03;;;4.65;86.14
62402;BME280;48440;51.224;22.506;2023-12-20T06:16:39;98305.47;;;4.65;85.96
62402;BME280;48440;51.224;22.506;2023-12-20T06:19:04;98311.09;;;4.64;85.87
62402;BME280;48440;51.224;22.506;2023-12-20T06:21:31;98307.00;;;4.61;86.77
62402;BME280;48440;51.224;22.506;2023-12-20T06:23:58;98304.31;;;4.61;86.50
62402;BME280;48440;51.224;22.506;2023-12-20T06:26:24;98307.56;;;4.63;86.69
62402;BME280;48440;51.224;22.506;2023-12-20T06:28:49;98308.63;;;4.62;86.13
62402;BME280;48440;51.224;22.506;2023-12-20T06:31:14;98308.63;;;4.62;86.01
62402;BME280;48440;51.224;22.506;2023-12-20T06:33:40;98314.25;;;4.61;85.76
62402;BME280;48440;51.224;22.506;2023-12-20T06:36:11;98309.34;;;4.58;85.93
62402;BME280;48440;51.224;22.506;2023-12-20T06:38:37;98305.84;;;4.57;85.69
62402;BME280;48440;51.224;22.506;2023-12-20T06:41:03;98318.34;;;4.52;85.66
62402;BME280;48440;51.224;22.506;2023-12-20T06:43:28;98318.69;;;4.55;86.00
62402;BME280;48440;51.224;22.506;2023-12-20T06:45:54;98304.22;;;4.56;85.78
62402;BME280;48440;51.224;22.506;2023-12-20T06:48:19;98320.09;;;4.58;86.33
62402;BME280;48440;51.224;22.506;2023-12-20T06:50:45;98313.44;;;4.60;86.03
62402;BME280;48440;51.224;22.506;2023-12-20T06:53:11;98318.47;;;4.57;nan
62402;BME280;48440;51.224;22.506;2023-12-20T06:55:37;98309.81;;;4.55;84.88
62402;BME280;48440;51.224;22.506;2023-12-20T06:58:03;98305.03;;;4.57;84.35
62402;BME280;48440;51.224;22.506;2023-12-20T07:00:29;98317.06;;;4.54;84.29
62402;BME280;48440;51.224;22.506;2023-12-20T07:02:55;98308.91;;;4.49;84.67
62402;BME280;48440;51.224;22.506;2023-12-20T07:05:20;98311.59;;;4.49;85.11
62402;BME280;48440;51.224;22.506;2023-12-20T07:07:46;98312.63;;;4.48;84.84
62402;BME280;48440;51.224;22.506;2023-12-20T07:10:13;98308.19;;;4.54;84.49
62402;BME280;48440;51.224;22.506;2023-12-20T07:12:38;98307.03;;;4.50;84.40
62402;BME280;48440;51.224;22.506;2023-12-20T07:15:04;98319.66;;;4.49;84.94
62402;BME280;48440;51.224;22.506;2023-12-20T07:17:31;98319.41;;;4.51;84.70
62402;BME280;48440;51.224;22.506;2023-12-20T07:19:58;98320.00;;;4.53;85.22
62402;BME280;48440;51.224;22.506;2023-12-20T07:22:24;98306.56;;;4.53;84.91
62402;BME280;48440;51.224;22.506;2023-12-20T07:24:49;98307.13;;;4.55;85.44
62402;BME280;48440;51.224;22.506;2023-12-20T07:27:15;98309.81;;;4.55;85.13
62402;BME280;48440;51.224;22.506;2023-12-20T07:29:40;98315.19;;;4.55;85.37
62402;BME280;48440;51.224;22.506;2023-12-20T07:32:06;98309.81;;;4.55;86.17
62402;BME280;48440;51.224;22.506;2023-12-20T07:34:31;98312.03;;;4.58;85.44
62402;BME280;48440;51.224;22.506;2023-12-20T07:36:57;98318.22;;;4.58;85.49
62402;BME280;48440;51.224;22.506;2023-12-20T07:39:22;98310.75;;;4.60;84.78
62402;BME280;48440;51.224;22.506;2023-12-20T07:41:48;98313.09;;;4.57;84.99
62402;BME280;48440;51.224;22.506;2023-12-20T07:44:13;98310.63;;;4.55;84.75
62402;BME280;48440;51.224;22.506;2023-12-20T07:46:40;98313.31;;;4.55;83.96
62402;BME280;48440;51.224;22.506;2023-12-20T07:49:06;98310.31;;;4.52;84.33
62402;BME280;48440;51.224;22.506;2023-12-20T07:51:33;98316.50;;;4.52;84.55
62402;BME280;48440;51.224;22.506;2023-12-20T07:53:59;98305.50;;;4.54;84.81
62402;BME280;48440;51.224;22.506;2023-12-20T07:56:25;98307.38;;;4.53;84.30
62402;BME280;48440;51.224;22.506;2023-12-20T07:58:50;98298.72;;;4.51;84.33
62402;BME280;48440;51.224;22.506;2023-12-20T08:01:16;98309.97;;;4.48;84.04
62402;BME280;48440;51.224;22.506;2023-12-20T08:03:42;98299.78;;;4.50;84.43
62402;BME280;48440;51.224;22.506;2023-12-20T08:06:07;98306.44;;;4.48;84.25
62402;BME280;48440;51.224;22.506;2023-12-20T08:08:32;98305.88;;;4.46;84.46
62402;BME280;48440;51.224;22.506;2023-12-20T08:10:58;98298.41;;;4.48;84.72
62402;BME280;48440;51.224;22.506;2023-12-20T08:13:25;98294.66;;;4.49;85.10
62402;BME280;48440;51.224;22.506;2023-12-20T08:15:52;98298.41;;;4.48;85.43
62402;BME280;48440;51.224;22.506;2023-12-20T08:18:17;98289.84;;;4.51;84.95
62402;BME280;48440;51.224;22.506;2023-12-20T08:20:43;98292.06;;;4.54;84.65
62402;BME280;48440;51.224;22.506;2023-12-20T08:23:08;98291.84;;;4.55;84.60
62402;BME280;48440;51.224;22.506;2023-12-20T08:25:34;98298.38;;;4.59;84.17
62402;BME280;48440;51.224;22.506;2023-12-20T08:27:59;98294.03;;;4.58;84.40
62402;BME280;48440;51.224;22.506;2023-12-20T08:30:25;98291.94;;;4.60;85.03
62402;BME280;48440;51.224;22.506;2023-12-20T08:32:53;98296.97;;;4.57;85.45
62402;BME280;48440;51.224;22.506;2023-12-20T08:35:18;98289.47;;;4.59;85.14
62402;BME280;48440;51.224;22.506;2023-12-20T08:37:45;98299.41;;;4.58;85.81
62402;BME280;48440;51.224;22.506;2023-12-20T08:40:10;98297.88;;;4.62;84.67
62402;BME280;48440;51.224;22.506;2023-12-20T08:42:35;98288.19;;;4.61;85.16
62402;BME280;48440;51.224;22.506;2023-12-20T08:45:01;98287.13;;;4.62;85.70
62402;BME280;48440;51.224;22.506;2023-12-20T08:47:29;98286.41;;;4.67;85.84
62402;BME280;48440;51.224;22.506;2023-12-20T08:49:55;98284.28;;;4.69;85.73
62402;BME280;48440;51.224;22.506;2023-12-20T08:52:25;98295.03;;;4.69;85.85
62402;BME280;48440;51.224;22.506;2023-12-20T08:54:52;98291.28;;;4.70;85.71
62402;BME280;48440;51.224;22.506;2023-12-20T08:57:19;98287.53;;;4.71;85.15
62402;BME280;48440;51.224;22.506;2023-12-20T08:59:47;98275.66;;;4.67;85.87
62402;BME280;48440;51.224;22.506;2023-12-20T09:02:12;98271.09;;;4.67;86.35
62402;BME280;48440;51.224;22.506;2023-12-20T09:04:38;98269.88;;;4.75;85.77
62402;BME280;48440;51.224;22.506;2023-12-20T09:07:04;98272.81;;;4.73;85.67
62402;BME280;48440;51.224;22.506;2023-12-20T09:09:30;98269.53;;;4.71;85.43
62402;BME280;48440;51.224;22.506;2023-12-20T09:11:57;98272.00;;;4.73;85.64
62402;BME280;48440;51.224;22.506;2023-12-20T09:14:22;98263.34;;;4.71;85.92
62402;BME280;48440;51.224;22.506;2023-12-20T09:16:48;98267.66;;;4.72;86.15
62402;BME280;48440;51.224;22.506;2023-12-20T09:19:16;98270.34;;;4.72;86.45
62402;BME280;48440;51.224;22.506;2023-12-20T09:21:42;98259.28;;;4.68;86.79
62402;BME280;48440;51.224;22.506;2023-12-20T09:24:07;98254.16;;;4.67;86.70
62402;BME280;48440;51.224;22.506;2023-12-20T09:26:34;98254.16;;;4.67;86.93
62402;BME280;48440;51.224;22.506;2023-12-20T09:28:59;98257.16;;;4.70;87.37
62402;BME280;48440;51.224;22.506;2023-12-20T09:31:25;98246.75;;;4.74;86.86
62402;BME280;48440;51.224;22.506;2023-12-20T09:33:50;98246.50;;;4.75;86.42
62402;BME280;48440;51.224;22.506;2023-12-20T09:36:16;98241.13;;;4.75;86.92
62402;BME280;48440;51.224;22.506;2023-12-20T09:38:41;98241.47;;;4.79;85.87
62402;BME280;48440;51.224;22.506;2023-12-20T09:41:07;98254.00;;;4.73;86.75
62402;BME280;48440;51.224;22.506;2023-12-20T09:43:35;98240.31;;;4.75;86.39
62402;BME280;48440;51.224;22.506;2023-12-20T09:46:06;98241.38;;;4.74;86.61
62402;BME280;48440;51.224;22.506;2023-12-20T09:48:36;98239.59;;;4.80;86.50
62402;BME280;48440;51.224;22.506;2023-12-20T09:51:02;98238.78;;;4.79;86.64
62402;BME280;48440;51.224;22.506;2023-12-20T09:53:28;98245.44;;;4.76;86.77
62402;BME280;48440;51.224;22.506;2023-12-20T09:55:59;98231.03;;;4.83;86.76
62402;BME280;48440;51.224;22.506;2023-12-20T09:58:26;98237.13;;;4.78;86.39
62402;BME280;48440;51.224;22.506;2023-12-20T10:00:53;98224.75;;;4.77;86.94
62402;BME280;48440;51.224;22.506;2023-12-20T10:03:24;98223.69;;;4.78;86.95
62402;BME280;48440;51.224;22.506;2023-12-20T10:05:52;98215.41;;;4.80;87.05
62402;BME280;48440;51.224;22.506;2023-12-20T10:08:20;98216.69;;;4.77;87.55
62402;BME280;48440;51.224;22.506;2023-12-20T10:10:46;98221.84;;;4.78;86.88
62402;BME280;48440;51.224;22.506;2023-12-20T10:13:12;98226.63;;;4.76;87.25
62402;BME280;48440;51.224;22.506;2023-12-20T10:15:38;98216.47;;;4.78;87.80
62402;BME280;48440;51.224;22.506;2023-12-20T10:18:04;98218.66;;;4.82;87.69
62402;BME280;48440;51.224;22.506;2023-12-20T10:20:30;98216.78;;;4.82;87.27
62402;BME280;48440;51.224;22.506;2023-12-20T10:22:57;98218.66;;;4.82;87.20
62402;BME280;48440;51.224;22.506;2023-12-20T10:25:23;98217.59;;;4.83;87.27
62402;BME280;48440;51.224;22.506;2023-12-20T10:30:56;98203.75;;;4.91;86.94
62402;BME280;48440;51.224;22.506;2023-12-20T10:33:26;98207.28;;;4.91;86.58
62402;BME280;48440;51.224;22.506;2023-12-20T10:35:52;98204.81;;;4.90;87.07
62402;BME280;48440;51.224;22.506;2023-12-20T10:38:19;98200.03;;;4.92;86.87
62402;BME280;48440;51.224;22.506;2023-12-20T10:40:49;98199.78;;;4.93;86.70
62402;BME280;48440;51.224;22.506;2023-12-20T10:43:19;98192.50;;;4.94;86.75
62402;BME280;48440;51.224;22.506;2023-12-20T10:45:46;98195.75;;;4.96;86.89
62402;BME280;48440;51.224;22.506;2023-12-20T10:48:11;98196.09;;;4.99;86.77
62402;BME280;48440;51.224;22.506;2023-12-20T10:50:38;98196.56;;;4.96;85.98
62402;BME280;48440;51.224;22.506;2023-12-20T10:53:04;98192.59;;;4.99;86.34
62402;BME280;48440;51.224;22.506;2023-12-20T10:55:29;98183.47;;;5.00;86.20
62402;BME280;48440;51.224;22.506;2023-12-20T10:58:08;98179.72;;;5.01;86.51
62402;BME280;48440;51.224;22.506;2023-12-20T11:00:43;98186.16;;;5.00;86.02
62402;BME280;48440;51.224;22.506;2023-12-20T11:03:11;98183.13;;;4.96;86.18
62402;BME280;48440;51.224;22.506;2023-12-20T11:08:22;98179.31;;;4.92;87.38
62402;BME280;48440;51.224;22.506;2023-12-20T11:11:02;98173.88;;;4.87;87.82
62402;BME280;48440;51.224;22.506;2023-12-20T11:13:55;98169.88;;;4.90;88.07
62402;BME280;48440;51.224;22.506;2023-12-20T11:16:21;98165.38;;;4.95;87.53
62402;BME280;48440;51.224;22.506;2023-12-20T11:18:46;98167.50;;;4.93;87.91
62402;BME280;48440;51.224;22.506;2023-12-20T11:21:12;98166.75;;;4.98;87.07
62402;BME280;48440;51.224;22.506;2023-12-20T11:23:42;98158.06;;;4.91;87.58
62402;BME280;48440;51.224;22.506;2023-12-20T11:26:08;98161.03;;;4.94;87.41
62402;BME280;48440;51.224;22.506;2023-12-20T11:28:33;98166.63;;;4.88;87.53
62402;BME280;48440;51.224;22.506;2023-12-20T11:31:00;98152.34;;;4.87;87.83
62402;BME280;48440;51.224;22.506;2023-12-20T11:33:36;98162.06;;;4.88;87.79
62402;BME280;48440;51.224;22.506;2023-12-20T11:36:03;98166.38;;;4.89;88.17
62402;BME280;48440;51.224;22.506;2023-12-20T11:38:38;98155.63;;;4.89;87.72
62402;BME280;48440;51.224;22.506;2023-12-20T11:41:05;98160.75;;;4.91;88.03
62402;BME280;48440;51.224;22.506;2023-12-20T11:43:39;98161.88;;;4.95;87.73
62402;BME280;48440;51.224;22.506;2023-12-20T11:46:08;98160.50;;;4.92;87.53
62402;BME280;48440;51.224;22.506;2023-12-20T11:48:40;98157.81;;;4.92;87.76
62402;BME280;48440;51.224;22.506;2023-12-20T11:51:15;98152.75;;;4.96;87.31
62402;BME280;48440;51.224;22.506;2023-12-20T11:53:43;98150.81;;;4.91;88.00
62402;BME280;48440;51.224;22.506;2023-12-20T11:56:09;98146.53;;;4.95;87.43
62402;BME280;48440;51.224;22.506;2023-12-20T11:58:35;98148.69;;;4.93;86.84
62402;BME280;48440;51.224;22.506;2023-12-20T12:01:01;98135.78;;;4.95;86.84
62402;BME280;48440;51.224;22.506;2023-12-20T12:03:32;98131.22;;;4.96;86.66
62402;BME280;48440;51.224;22.506;2023-12-20T12:05:58;98138.72;;;4.94;86.06
62402;BME280;48440;51.224;22.506;2023-12-20T12:08:24;98138.72;;;4.94;86.45
62402;BME280;48440;51.224;22.506;2023-12-20T12:10:50;98132.84;;;4.97;85.66
62402;BME280;48440;51.224;22.506;2023-12-20T12:13:16;98134.97;;;4.95;86.18
62402;BME280;48440;51.224;22.506;2023-12-20T12:15:42;98132.28;;;4.95;86.42
62402;BME280;48440;51.224;22.506;2023-12-20T12:18:07;98136.13;;;4.99;85.81
62402;BME280;48440;51.224;22.506;2023-12-20T12:20:33;98135.31;;;4.98;85.35
62402;BME280;48440;51.224;22.506;2023-12-20T12:23:04;98137.41;;;4.96;nan
62402;BME280;48440;51.224;22.506;2023-12-20T12:25:31;98136.59;;;4.96;84.84
62402;BME280;48440;51.224;22.506;2023-12-20T12:27:59;98132.28;;;4.95;84.40
62402;BME280;48440;51.224;22.506;2023-12-20T12:30:25;98129.06;;;4.93;84.69
62402;BME280;48440;51.224;22.506;2023-12-20T12:32:52;98132.00;;;4.91;84.58
62402;BME280;48440;51.224;22.506;2023-12-20T12:35:18;98123.41;;;4.94;84.89
62402;BME280;48440;51.224;22.506;2023-12-20T12:37:44;98128.72;;;4.89;85.13
62402;BME280;48440;51.224;22.506;2023-12-20T12:40:11;98126.88;;;4.90;85.28
62402;BME280;48440;51.224;22.506;2023-12-20T12:42:41;98128.72;;;4.89;85.55
62402;BME280;48440;51.224;22.506;2023-12-20T12:45:08;98116.09;;;4.90;85.46
62402;BME280;48440;51.224;22.506;2023-12-20T12:47:34;98117.75;;;4.91;86.03
62402;BME280;48440;51.224;22.506;2023-12-20T12:50:00;98125.00;;;4.90;86.22
62402;BME280;48440;51.224;22.506;2023-12-20T12:52:26;98127.19;;;4.93;86.09
62402;BME280;48440;51.224;22.506;2023-12-20T12:54:52;98122.59;;;4.94;85.81
62402;BME280;48440;51.224;22.506;2023-12-20T12:57:18;98116.97;;;4.95;85.51
62402;BME280;48440;51.224;22.506;2023-12-20T12:59:44;98120.44;;;4.91;85.89
62402;BME280;48440;51.224;22.506;2023-12-20T13:02:12;98116.09;;;4.90;86.33